sensor_id;sensor_type;location;lat;lon;timestamp;pressure;altitude;pressure_sealevel;temperature;humidity
68107;BME280;54892;47.488;19.026;2023-03-14T00:00:44;99228.41;;;8.48;51.87
68107;BME280;54892;47.488;19.026;2023-03-14T00:03:47;99223.94;;;8.49;52.03
68107;BME280;54892;47.488;19.026;2023-03-14T00:06:50;99228.63;;;8.47;52.24
68107;BME280;54892;47.488;19.026;2023-03-14T00:09:55;99222.59;;;8.46;52.26
68107;BME280;54892;47.488;19.026;2023-03-14T00:12:58;99215.00;;;8.50;52.23
68107;BME280;54892;47.488;19.026;2023-03-14T00:16:02;99204.94;;;8.42;52.65
68107;BME280;54892;47.488;19.026;2023-03-14T00:19:05;99213.91;;;8.41;52.61
68107;BME280;54892;47.488;19.026;2023-03-14T00:22:09;99207.84;;;8.40;52.60
68107;BME280;54892;47.488;19.026;2023-03-14T00:25:13;99203.91;;;8.43;52.65
68107;BME280;54892;47.488;19.026;2023-03-14T00:28:17;99191.28;;;8.45;52.56
68107;BME280;54892;47.488;19.026;2023-03-14T00:31:20;99192.34;;;8.44;52.63
68107;BME280;54892;47.488;19.026;2023-03-14T00:34:23;99182.34;;;8.46;52.77
68107;BME280;54892;47.488;19.026;2023-03-14T00:37:26;99173.69;;;8.45;52.88
68107;BME280;54892;47.488;19.026;2023-03-14T00:40:31;99173.16;;;8.43;52.85
68107;BME280;54892;47.488;19.026;2023-03-14T00:43:34;99170.25;;;8.45;52.71
68107;BME280;54892;47.488;19.026;2023-03-14T00:46:37;99167.63;;;8.45;53.01
68107;BME280;54892;47.488;19.026;2023-03-14T00:49:41;99169.47;;;8.44;52.90
68107;BME280;54892;47.488;19.026;2023-03-14T00:52:45;99161.81;;;8.43;52.99
68107;BME280;54892;47.488;19.026;2023-03-14T00:55:51;99158.69;;;8.41;53.09
68107;BME280;54892;47.488;19.026;2023-03-14T00:58:55;99156.56;;;8.43;53.08
68107;BME280;54892;47.488;19.026;2023-03-14T01:01:58;99139.75;;;8.38;53.04
68107;BME280;54892;47.488;19.026;2023-03-14T01:05:02;99151.84;;;8.40;53.12
68107;BME280;54892;47.488;19.026;2023-03-14T01:08:05;99150.28;;;8.38;53.09
68107;BME280;54892;47.488;19.026;2023-03-14T01:11:11;99140.78;;;8.43;52.94
68107;BME280;54892;47.488;19.026;2023-03-14T01:14:15;99142.91;;;8.46;52.80
68107;BME280;54892;47.488;19.026;2023-03-14T01:17:19;99142.63;;;8.32;53.38
68107;BME280;54892;47.488;19.026;2023-03-14T01:20:22;99135.25;;;8.34;53.47
68107;BME280;54892;47.488;19.026;2023-03-14T01:23:25;99135.78;;;8.36;53.41
68107;BME280;54892;47.488;19.026;2023-03-14T01:26:30;99118.16;;;8.26;53.84
68107;BME280;54892;47.488;19.026;2023-03-14T01:29:34;99111.31;;;8.20;53.99
68107;BME280;54892;47.488;19.026;2023-03-14T01:32:37;99104.50;;;8.19;54.11
68107;BME280;54892;47.488;19.026;2023-03-14T01:35:40;99086.59;;;8.16;54.08
68107;BME280;54892;47.488;19.026;2023-03-14T01:38:44;99070.31;;;8.14;54.13
68107;BME280;54892;47.488;19.026;2023-03-14T01:41:49;99081.09;;;8.17;54.05
68107;BME280;54892;47.488;19.026;2023-03-14T01:44:52;99078.47;;;8.12;54.26
68107;BME280;54892;47.488;19.026;2023-03-14T01:47:56;99071.09;;;8.09;54.37
68107;BME280;54892;47.488;19.026;2023-03-14T01:50:59;99065.31;;;8.07;54.58
68107;BME280;54892;47.488;19.026;2023-03-14T01:54:05;99052.44;;;8.05;54.54
68107;BME280;54892;47.488;19.026;2023-03-14T01:57:13;99039.81;;;8.07;54.54
68107;BME280;54892;47.488;19.026;2023-03-14T02:00:17;99049.28;;;8.03;54.78
68107;BME280;54892;47.488;19.026;2023-03-14T02:03:21;99049.78;;;8.00;54.91
68107;BME280;54892;47.488;19.026;2023-03-14T02:06:26;99048.50;;;7.98;54.78
68107;BME280;54892;47.488;19.026;2023-03-14T02:09:31;99049.03;;;8.00;54.77
68107;BME280;54892;47.488;19.026;2023-03-14T02:12:36;99031.13;;;7.97;54.94
68107;BME280;54892;47.488;19.026;2023-03-14T02:15:39;99026.69;;;7.92;55.20
68107;BME280;54892;47.488;19.026;2023-03-14T02:18:42;99025.09;;;7.86;55.43
68107;BME280;54892;47.488;19.026;2023-03-14T02:21:47;99022.97;;;7.88;55.51
68107;BME280;54892;47.488;19.026;2023-03-14T02:24:56;99019.56;;;7.87;55.46
68107;BME280;54892;47.488;19.026;2023-03-14T02:28:02;99010.91;;;7.87;55.54
68107;BME280;54892;47.488;19.026;2023-03-14T02:31:06;98993.81;;;7.84;55.62
68107;BME280;54892;47.488;19.026;2023-03-14T02:34:10;98998.28;;;7.89;55.68
68107;BME280;54892;47.488;19.026;2023-03-14T02:37:13;98983.56;;;7.88;55.80
68107;BME280;54892;47.488;19.026;2023-03-14T02:40:18;98986.72;;;7.85;55.89
68107;BME280;54892;47.488;19.026;2023-03-14T02:43:23;98985.66;;;7.86;56.05
68107;BME280;54892;47.488;19.026;2023-03-14T02:46:26;98988.28;;;7.81;56.28
68107;BME280;54892;47.488;19.026;2023-03-14T02:49:30;98974.63;;;7.84;56.17
68107;BME280;54892;47.488;19.026;2023-03-14T02:52:34;98975.69;;;7.83;56.41
68107;BME280;54892;47.488;19.026;2023-03-14T02:55:37;98971.22;;;7.88;56.34
68107;BME280;54892;47.488;19.026;2023-03-14T02:58:41;98957.84;;;7.90;56.35
68107;BME280;54892;47.488;19.026;2023-03-14T03:01:45;98954.13;;;7.96;56.33
68107;BME280;54892;47.488;19.026;2023-03-14T03:04:48;98953.09;;;8.02;56.30
68107;BME280;54892;47.488;19.026;2023-03-14T03:07:52;98948.38;;;8.04;56.31
68107;BME280;54892;47.488;19.026;2023-03-14T03:10:55;98949.16;;;8.10;56.34
68107;BME280;54892;47.488;19.026;2023-03-14T03:14:00;98961.50;;;8.10;56.42
68107;BME280;54892;47.488;19.026;2023-03-14T03:17:04;98952.03;;;8.14;56.46
68107;BME280;54892;47.488;19.026;2023-03-14T03:20:07;98943.88;;;8.20;56.40
68107;BME280;54892;47.488;19.026;2023-03-14T03:23:11;98944.16;;;8.14;56.64
68107;BME280;54892;47.488;19.026;2023-03-14T03:26:14;98950.47;;;8.18;56.50
68107;BME280;54892;47.488;19.026;2023-03-14T03:29:19;98949.69;;;8.12;56.76
68107;BME280;54892;47.488;19.026;2023-03-14T03:32:22;98922.59;;;8.12;56.69
68107;BME280;54892;47.488;19.026;2023-03-14T03:35:26;98922.59;;;8.17;56.64
68107;BME280;54892;47.488;19.026;2023-03-14T03:38:30;98918.66;;;8.04;57.04
68107;BME280;54892;47.488;19.026;2023-03-14T03:41:33;98916.59;;;8.01;57.15
68107;BME280;54892;47.488;19.026;2023-03-14T03:44:37;98926.03;;;8.02;57.18
68107;BME280;54892;47.488;19.026;2023-03-14T03:47:41;98912.91;;;7.97;57.51
68107;BME280;54892;47.488;19.026;2023-03-14T03:50:45;98918.94;;;7.97;57.59
68107;BME280;54892;47.488;19.026;2023-03-14T03:53:48;98919.97;;;7.96;57.44
68107;BME280;54892;47.488;19.026;2023-03-14T03:56:51;98913.16;;;7.80;57.85
68107;BME280;54892;47.488;19.026;2023-03-14T03:59:56;98926.03;;;7.91;57.68
68107;BME280;54892;47.488;19.026;2023-03-14T04:02:59;98919.47;;;7.73;58.16
68107;BME280;54892;47.488;19.026;2023-03-14T04:06:03;98924.19;;;7.66;58.69
68107;BME280;54892;47.488;19.026;2023-03-14T04:09:07;98921.56;;;7.66;58.63
68107;BME280;54892;47.488;19.026;2023-03-14T04:12:10;98921.03;;;7.59;58.81
68107;BME280;54892;47.488;19.026;2023-03-14T04:15:15;98908.41;;;7.51;59.21
68107;BME280;54892;47.488;19.026;2023-03-14T04:18:19;98904.50;;;7.38;59.66
68107;BME280;54892;47.488;19.026;2023-03-14T04:21:23;98886.88;;;7.49;59.45
68107;BME280;54892;47.488;19.026;2023-03-14T04:24:26;98884.78;;;7.30;60.23
68107;BME280;54892;47.488;19.026;2023-03-14T04:27:30;98892.91;;;7.28;60.79
68107;BME280;54892;47.488;19.026;2023-03-14T04:30:35;98901.88;;;7.38;60.67
68107;BME280;54892;47.488;19.026;2023-03-14T04:33:38;98898.19;;;7.44;60.35
68107;BME280;54892;47.488;19.026;2023-03-14T04:36:41;98911.84;;;7.51;60.19
68107;BME280;54892;47.488;19.026;2023-03-14T04:39:44;98897.41;;;7.59;60.18
68107;BME280;54892;47.488;19.026;2023-03-14T04:42:47;98892.16;;;7.64;60.23
68107;BME280;54892;47.488;19.026;2023-03-14T04:45:52;98892.66;;;7.66;60.10
68107;BME280;54892;47.488;19.026;2023-03-14T04:48:56;98901.88;;;7.69;59.99
68107;BME280;54892;47.488;19.026;2023-03-14T04:51:59;98901.34;;;7.72;59.98
68107;BME280;54892;47.488;19.026;2023-03-14T04:55:02;98904.25;;;7.70;59.94
68107;BME280;54892;47.488;19.026;2023-03-14T04:58:06;98897.66;;;7.73;59.91
68107;BME280;54892;47.488;19.026;2023-03-14T05:01:11;98902.94;;;7.78;59.77
68107;BME280;54892;47.488;19.026;2023-03-14T05:04:14;98902.41;;;7.76;59.87
68107;BME280;54892;47.488;19.026;2023-03-14T05:07:17;98894.00;;;7.79;59.89
68107;BME280;54892;47.488;19.026;2023-03-14T05:10:20;98899.78;;;7.81;59.79
68107;BME280;54892;47.488;19.026;2023-03-14T05:13:24;98895.56;;;7.80;59.78
68107;BME280;54892;47.488;19.026;2023-03-14T05:16:28;98892.66;;;7.82;59.65
68107;BME280;54892;47.488;19.026;2023-03-14T05:19:31;98891.62;;;7.83;59.63
68107;BME280;54892;47.488;19.026;2023-03-14T05:22:36;98882.16;;;7.87;59.41
68107;BME280;54892;47.488;19.026;2023-03-14T05:25:39;98880.84;;;7.95;59.21
68107;BME280;54892;47.488;19.026;2023-03-14T05:28:42;98881.09;;;7.98;59.08
68107;BME280;54892;47.488;19.026;2023-03-14T05:31:47;98879.53;;;8.07;58.79
68107;BME280;54892;47.488;19.026;2023-03-14T05:34:50;98872.66;;;8.17;58.48
68107;BME280;54892;47.488;19.026;2023-03-14T05:37:54;98875.25;;;8.27;57.96
68107;BME280;54892;47.488;19.026;2023-03-14T05:40:57;98871.28;;;8.40;57.48
68107;BME280;54892;47.488;19.026;2023-03-14T05:44:00;98880.97;;;8.45;57.23
68107;BME280;54892;47.488;19.026;2023-03-14T05:47:05;98885.44;;;8.60;56.86
68107;BME280;54892;47.488;19.026;2023-03-14T05:50:09;98882.25;;;8.68;56.65
68107;BME280;54892;47.488;19.026;2023-03-14T05:53:12;98870.34;;;8.81;56.24
68107;BME280;54892;47.488;19.026;2023-03-14T05:56:15;98888.72;;;8.91;55.80
68107;BME280;54892;47.488;19.026;2023-03-14T05:59:18;98873.66;;;9.02;55.53
68107;BME280;54892;47.488;19.026;2023-03-14T06:02:23;98872.22;;;9.20;55.02
68107;BME280;54892;47.488;19.026;2023-03-14T06:05:26;98872.94;;;9.31;54.64
68107;BME280;54892;47.488;19.026;2023-03-14T06:08:29;98863.09;;;9.47;54.44
68107;BME280;54892;47.488;19.026;2023-03-14T06:11:33;98870.09;;;9.62;53.96
68107;BME280;54892;47.488;19.026;2023-03-14T06:14:36;98876.66;;;9.94;53.31
68107;BME280;54892;47.488;19.026;2023-03-14T06:17:41;98873.59;;;11.03;50.75
68107;BME280;54892;47.488;19.026;2023-03-14T06:20:44;98870.03;;;12.54;47.68
68107;BME280;54892;47.488;19.026;2023-03-14T06:23:47;98870.41;;;13.80;43.98
68107;BME280;54892;47.488;19.026;2023-03-14T06:26:50;98868.44;;;14.35;41.36
68107;BME280;54892;47.488;19.026;2023-03-14T06:29:53;98862.62;;;14.15;41.26
68107;BME280;54892;47.488;19.026;2023-03-14T06:32:58;98875.66;;;13.49;42.63
68107;BME280;54892;47.488;19.026;2023-03-14T06:36:01;98861.94;;;12.87;44.20
68107;BME280;54892;47.488;19.026;2023-03-14T06:39:05;98858.88;;;12.29;45.32
68107;BME280;54892;47.488;19.026;2023-03-14T06:42:08;98868.84;;;12.05;46.18
68107;BME280;54892;47.488;19.026;2023-03-14T06:45:12;98869.38;;;11.87;46.63
68107;BME280;54892;47.488;19.026;2023-03-14T06:48:17;98875.31;;;11.79;47.08
68107;BME280;54892;47.488;19.026;2023-03-14T06:51:20;98874.44;;;11.70;47.58
68107;BME280;54892;47.488;19.026;2023-03-14T06:54:24;98874.81;;;11.63;47.12
68107;BME280;54892;47.488;19.026;2023-03-14T06:57:27;98880.28;;;11.67;47.48
68107;BME280;54892;47.488;19.026;2023-03-14T07:00:31;98886.69;;;11.47;47.86
68107;BME280;54892;47.488;19.026;2023-03-14T07:03:35;98878.13;;;11.36;48.45
68107;BME280;54892;47.488;19.026;2023-03-14T07:06:40;98888.00;;;11.30;48.45
68107;BME280;54892;47.488;19.026;2023-03-14T07:09:46;98886.88;;;11.36;48.50
68107;BME280;54892;47.488;19.026;2023-03-14T07:12:49;98893.69;;;11.37;48.77
68107;BME280;54892;47.488;19.026;2023-03-14T07:15:54;98870.47;;;11.53;48.52
68107;BME280;54892;47.488;19.026;2023-03-14T07:19:00;98877.81;;;11.90;47.53
68107;BME280;54892;47.488;19.026;2023-03-14T07:22:03;98879.16;;;12.06;47.12
68107;BME280;54892;47.488;19.026;2023-03-14T07:25:08;98887.87;;;12.21;47.17
68107;BME280;54892;47.488;19.026;2023-03-14T07:28:13;98871.50;;;12.46;46.91
68107;BME280;54892;47.488;19.026;2023-03-14T07:31:17;98876.91;;;13.06;45.65
68107;BME280;54892;47.488;19.026;2023-03-14T07:34:22;98884.09;;;13.74;44.32
68107;BME280;54892;47.488;19.026;2023-03-14T07:37:25;98878.31;;;14.43;42.69
68107;BME280;54892;47.488;19.026;2023-03-14T07:40:28;98861.38;;;15.23;40.82
68107;BME280;54892;47.488;19.026;2023-03-14T07:43:31;98854.62;;;16.09;39.13
68107;BME280;54892;47.488;19.026;2023-03-14T07:46:34;98860.47;;;16.32;38.39
68107;BME280;54892;47.488;19.026;2023-03-14T07:49:38;98846.41;;;16.32;38.60
68107;BME280;54892;47.488;19.026;2023-03-14T07:52:41;98846.84;;;16.04;39.12
68107;BME280;54892;47.488;19.026;2023-03-14T07:55:44;98851.19;;;16.08;38.88
68107;BME280;54892;47.488;19.026;2023-03-14T07:58:48;98844.25;;;15.86;39.53
68107;BME280;54892;47.488;19.026;2023-03-14T08:01:51;98836.00;;;15.52;40.01
68107;BME280;54892;47.488;19.026;2023-03-14T08:04:56;98835.09;;;15.40;40.93
68107;BME280;54892;47.488;19.026;2023-03-14T08:08:00;98831.03;;;15.33;41.02
68107;BME280;54892;47.488;19.026;2023-03-14T08:11:04;98831.38;;;15.23;41.19
68107;BME280;54892;47.488;19.026;2023-03-14T08:14:07;98821.22;;;15.07;41.53
68107;BME280;54892;47.488;19.026;2023-03-14T08:17:10;98809.19;;;15.01;42.23
68107;BME280;54892;47.488;19.026;2023-03-14T08:20:15;98805.44;;;14.85;42.69
68107;BME280;54892;47.488;19.026;2023-03-14T08:23:18;98806.22;;;14.85;42.64
68107;BME280;54892;47.488;19.026;2023-03-14T08:26:22;98803.25;;;14.87;42.74
68107;BME280;54892;47.488;19.026;2023-03-14T08:29:25;98811.53;;;14.94;42.85
68107;BME280;54892;47.488;19.026;2023-03-14T08:32:28;98801.22;;;15.01;42.86
68107;BME280;54892;47.488;19.026;2023-03-14T08:35:33;98799.34;;;15.02;42.88
68107;BME280;54892;47.488;19.026;2023-03-14T08:38:36;98798.53;;;15.19;42.78
68107;BME280;54892;47.488;19.026;2023-03-14T08:41:39;98794.91;;;15.32;42.48
68107;BME280;54892;47.488;19.026;2023-03-14T08:44:42;98787.84;;;15.45;42.25
68107;BME280;54892;47.488;19.026;2023-03-14T08:47:45;98783.59;;;15.53;41.66
68107;BME280;54892;47.488;19.026;2023-03-14T08:50:50;98774.22;;;15.47;41.60
68107;BME280;54892;47.488;19.026;2023-03-14T08:53:53;98772.88;;;15.41;41.94
68107;BME280;54892;47.488;19.026;2023-03-14T08:56:56;98771.94;;;15.36;42.18
68107;BME280;54892;47.488;19.026;2023-03-14T09:00:00;98762.22;;;15.41;42.22
68107;BME280;54892;47.488;19.026;2023-03-14T09:03:06;98756.56;;;15.51;42.28
68107;BME280;54892;47.488;19.026;2023-03-14T09:06:11;98753.44;;;15.49;42.03
68107;BME280;54892;47.488;19.026;2023-03-14T09:09:14;98752.03;;;15.43;42.23
68107;BME280;54892;47.488;19.026;2023-03-14T09:12:19;98751.72;;;15.44;42.21
68107;BME280;54892;47.488;19.026;2023-03-14T09:15:22;98743.87;;;15.48;41.83
68107;BME280;54892;47.488;19.026;2023-03-14T09:18:25;98751.25;;;15.42;42.32
68107;BME280;54892;47.488;19.026;2023-03-14T09:21:29;98750.03;;;15.40;41.40
68107;BME280;54892;47.488;19.026;2023-03-14T09:24:33;98739.09;;;15.32;41.81
68107;BME280;54892;47.488;19.026;2023-03-14T09:27:36;98737.50;;;15.40;42.36
68107;BME280;54892;47.488;19.026;2023-03-14T09:30:39;98716.84;;;15.46;41.50
68107;BME280;54892;47.488;19.026;2023-03-14T09:33:43;98712.44;;;15.50;41.70
68107;BME280;54892;47.488;19.026;2023-03-14T09:36:48;98708.81;;;15.55;42.26
68107;BME280;54892;47.488;19.026;2023-03-14T09:39:51;98713.97;;;15.60;41.67
68107;BME280;54892;47.488;19.026;2023-03-14T09:42:55;98696.44;;;15.59;41.74
68107;BME280;54892;47.488;19.026;2023-03-14T09:46:00;98693.78;;;15.59;41.86
68107;BME280;54892;47.488;19.026;2023-03-14T09:49:07;98688.28;;;15.64;42.55
68107;BME280;54892;47.488;19.026;2023-03-14T09:52:15;98686.53;;;15.68;42.47
68107;BME280;54892;47.488;19.026;2023-03-14T09:55:19;98682.91;;;15.73;42.57
68107;BME280;54892;47.488;19.026;2023-03-14T09:58:24;98671.09;;;15.91;42.31
68107;BME280;54892;47.488;19.026;2023-03-14T10:01:28;98678.84;;;16.05;41.65
68107;BME280;54892;47.488;19.026;2023-03-14T10:04:33;98673.28;;;16.19;41.19
68107;BME280;54892;47.488;19.026;2023-03-14T10:07:37;98670.38;;;16.46;40.96
68107;BME280;54892;47.488;19.026;2023-03-14T10:10:41;98650.97;;;16.45;41.32
68107;BME280;54892;47.488;19.026;2023-03-14T10:13:48;98640.25;;;16.66;41.05
68107;BME280;54892;47.488;19.026;2023-03-14T10:16:52;98653.31;;;16.93;40.69
68107;BME280;54892;47.488;19.026;2023-03-14T10:19:56;98647.72;;;17.19;38.72
68107;BME280;54892;47.488;19.026;2023-03-14T10:23:02;98640.06;;;17.42;38.25
68107;BME280;54892;47.488;19.026;2023-03-14T10:26:07;98631.34;;;17.45;38.09
68107;BME280;54892;47.488;19.026;2023-03-14T10:29:11;98615.13;;;17.63;38.30
68107;BME280;54892;47.488;19.026;2023-03-14T10:32:18;98624.00;;;17.67;37.52
68107;BME280;54892;47.488;19.026;2023-03-14T10:35:22;98624.09;;;17.71;37.63
68107;BME280;54892;47.488;19.026;2023-03-14T10:38:28;98610.53;;;17.76;37.59
68107;BME280;54892;47.488;19.026;2023-03-14T10:41:32;98612.88;;;17.77;37.68
68107;BME280;54892;47.488;19.026;2023-03-14T10:44:36;98601.63;;;17.84;37.69
68107;BME280;54892;47.488;19.026;2023-03-14T10:47:46;98594.59;;;17.92;37.44
68107;BME280;54892;47.488;19.026;2023-03-14T10:50:53;98599.94;;;18.04;37.50
68107;BME280;54892;47.488;19.026;2023-03-14T10:53:59;98589.66;;;18.06;37.56
68107;BME280;54892;47.488;19.026;2023-03-14T10:57:04;98577.41;;;18.18;37.03
68107;BME280;54892;47.488;19.026;2023-03-14T11:00:11;98584.91;;;18.28;36.67
68107;BME280;54892;47.488;19.026;2023-03-14T11:03:17;98567.84;;;18.33;36.33
68107;BME280;54892;47.488;19.026;2023-03-14T11:06:23;98576.91;;;18.28;37.02
68107;BME280;54892;47.488;19.026;2023-03-14T11:09:31;98575.03;;;18.45;36.48
68107;BME280;54892;47.488;19.026;2023-03-14T11:12:39;98567.09;;;18.32;36.33
68107;BME280;54892;47.488;19.026;2023-03-14T11:15:47;98551.38;;;18.15;36.63
68107;BME280;54892;47.488;19.026;2023-03-14T11:19:00;98548.09;;;18.05;37.00
68107;BME280;54892;47.488;19.026;2023-03-14T11:22:06;98547.25;;;18.17;36.92
68107;BME280;54892;47.488;19.026;2023-03-14T11:25:21;98530.37;;;18.29;37.06
68107;BME280;54892;47.488;19.026;2023-03-14T11:28:26;98512.13;;;18.47;36.99
68107;BME280;54892;47.488;19.026;2023-03-14T11:31:31;98515.37;;;18.40;36.66
68107;BME280;54892;47.488;19.026;2023-03-14T11:34:38;98514.44;;;18.33;36.71
68107;BME280;54892;47.488;19.026;2023-03-14T11:37:45;98515.53;;;18.16;36.99
68107;BME280;54892;47.488;19.026;2023-03-14T11:40:51;98509.97;;;18.21;37.09
68107;BME280;54892;47.488;19.026;2023-03-14T11:43:55;98523.41;;;18.24;37.01
68107;BME280;54892;47.488;19.026;2023-03-14T11:47:01;98526.34;;;18.35;36.74
68107;BME280;54892;47.488;19.026;2023-03-14T11:50:07;98514.78;;;18.47;37.00
68107;BME280;54892;47.488;19.026;2023-03-14T11:53:16;98525.06;;;18.61;36.52
68107;BME280;54892;47.488;19.026;2023-03-14T11:56:24;98511.16;;;18.71;36.05
68107;BME280;54892;47.488;19.026;2023-03-14T11:59:32;98498.06;;;18.82;36.05
68107;BME280;54892;47.488;19.026;2023-03-14T12:02:39;98484.41;;;19.04;35.07
68107;BME280;54892;47.488;19.026;2023-03-14T12:05:46;98499.53;;;18.96;35.20
68107;BME280;54892;47.488;19.026;2023-03-14T12:08:54;98491.59;;;18.99;34.83
68107;BME280;54892;47.488;19.026;2023-03-14T12:12:00;98486.16;;;18.96;35.57
68107;BME280;54892;47.488;19.026;2023-03-14T12:15:05;98481.25;;;18.98;35.10
68107;BME280;54892;47.488;19.026;2023-03-14T12:18:21;98480.47;;;18.97;34.66
68107;BME280;54892;47.488;19.026;2023-03-14T12:21:42;98479.34;;;18.98;34.47
68107;BME280;54892;47.488;19.026;2023-03-14T12:24:47;98484.94;;;18.93;34.54
68107;BME280;54892;47.488;19.026;2023-03-14T12:31:37;98468.09;;;19.09;34.59
68107;BME280;54892;47.488;19.026;2023-03-14T12:34:42;98462.59;;;19.01;34.92
68107;BME280;54892;47.488;19.026;2023-03-14T12:37:47;98463.75;;;18.84;35.77
68107;BME280;54892;47.488;19.026;2023-03-14T12:40:56;98455.34;;;18.86;35.49
68107;BME280;54892;47.488;19.026;2023-03-14T12:50:53;98444.16;;;18.96;35.33
68107;BME280;54892;47.488;19.026;2023-03-14T12:54:02;98435.31;;;18.76;35.98
68107;BME280;54892;47.488;19.026;2023-03-14T13:00:30;98428.34;;;18.55;36.24
68107;BME280;54892;47.488;19.026;2023-03-14T13:03:37;98428.53;;;18.47;36.49
68107;BME280;54892;47.488;19.026;2023-03-14T13:06:51;98421.66;;;18.46;36.55
68107;BME280;54892;47.488;19.026;2023-03-14T13:09:57;98415.44;;;18.41;36.99
68107;BME280;54892;47.488;19.026;2023-03-14T13:13:03;98423.37;;;18.22;37.33
68107;BME280;54892;47.488;19.026;2023-03-14T13:16:15;98414.16;;;18.19;37.15
68107;BME280;54892;47.488;19.026;2023-03-14T13:19:20;98418.91;;;18.10;37.60
68107;BME280;54892;47.488;19.026;2023-03-14T13:22:27;98408.84;;;18.03;37.24
68107;BME280;54892;47.488;19.026;2023-03-14T13:25:31;98408.41;;;18.01;37.35
68107;BME280;54892;47.488;19.026;2023-03-14T13:28:35;98407.84;;;17.95;37.47
68107;BME280;54892;47.488;19.026;2023-03-14T13:31:38;98417.81;;;17.83;37.77
68107;BME280;54892;47.488;19.026;2023-03-14T13:34:46;98417.38;;;17.80;37.78
68107;BME280;54892;47.488;19.026;2023-03-14T13:37:56;98427.88;;;17.73;38.10
68107;BME280;54892;47.488;19.026;2023-03-14T13:41:11;98419.00;;;17.69;38.41
68107;BME280;54892;47.488;19.026;2023-03-14T13:44:15;98422.09;;;17.71;39.36
68107;BME280;54892;47.488;19.026;2023-03-14T13:47:21;98434.34;;;17.72;39.45
68107;BME280;54892;47.488;19.026;2023-03-14T13:50:24;98417.25;;;17.61;39.36
68107;BME280;54892;47.488;19.026;2023-03-14T13:53:30;98421.31;;;17.71;38.82
68107;BME280;54892;47.488;19.026;2023-03-14T13:56:34;98415.81;;;17.63;39.25
68107;BME280;54892;47.488;19.026;2023-03-14T13:59:40;98422.09;;;17.71;38.90
68107;BME280;54892;47.488;19.026;2023-03-14T14:02:43;98421.81;;;17.60;38.62
68107;BME280;54892;47.488;19.026;2023-03-14T14:05:47;98425.25;;;17.61;38.50
68107;BME280;54892;47.488;19.026;2023-03-14T14:08:52;98428.63;;;17.58;38.49
68107;BME280;54892;47.488;19.026;2023-03-14T14:11:55;98423.47;;;17.65;38.11
68107;BME280;54892;47.488;19.026;2023-03-14T14:15:16;98416.66;;;17.68;38.45
68107;BME280;54892;47.488;19.026;2023-03-14T14:18:22;98417.44;;;17.68;38.31
68107;BME280;54892;47.488;19.026;2023-03-14T14:21:28;98415.91;;;17.67;38.37
68107;BME280;54892;47.488;19.026;2023-03-14T14:24:34;98403.66;;;17.66;38.41
68107;BME280;54892;47.488;19.026;2023-03-14T14:27:39;98399.87;;;17.67;38.26
68107;BME280;54892;47.488;19.026;2023-03-14T14:30:44;98410.56;;;17.67;38.22
68107;BME280;54892;47.488;19.026;2023-03-14T14:33:53;98404.53;;;17.70;38.48
68107;BME280;54892;47.488;19.026;2023-03-14T14:36:56;98407.75;;;17.92;37.71
68107;BME280;54892;47.488;19.026;2023-03-14T14:40:06;98397.06;;;17.76;37.96
68107;BME280;54892;47.488;19.026;2023-03-14T14:43:10;98398.88;;;17.88;37.92
68107;BME280;54892;47.488;19.026;2023-03-14T14:46:16;98398.09;;;17.87;37.82
68107;BME280;54892;47.488;19.026;2023-03-14T14:49:20;98405.78;;;17.89;38.03
68107;BME280;54892;47.488;19.026;2023-03-14T14:52:30;98394.47;;;17.79;38.15
68107;BME280;54892;47.488;19.026;2023-03-14T14:55:40;98393.87;;;17.70;38.42
68107;BME280;54892;47.488;19.026;2023-03-14T14:58:44;98392.06;;;17.74;37.94
68107;BME280;54892;47.488;19.026;2023-03-14T15:01:47;98386.91;;;17.65;38.41
68107;BME280;54892;47.488;19.026;2023-03-14T15:04:52;98389.22;;;17.67;38.23
68107;BME280;54892;47.488;19.026;2023-03-14T15:07:55;98389.88;;;17.64;38.65
68107;BME280;54892;47.488;19.026;2023-03-14T15:11:00;98388.69;;;17.61;38.93
68107;BME280;54892;47.488;19.026;2023-03-14T15:14:03;98400.41;;;17.57;38.84
68107;BME280;54892;47.488;19.026;2023-03-14T15:17:09;98403.06;;;17.57;38.68
68107;BME280;54892;47.488;19.026;2023-03-14T15:20:14;98407.97;;;17.55;38.70
68107;BME280;54892;47.488;19.026;2023-03-14T15:23:20;98424.34;;;17.41;39.03
68107;BME280;54892;47.488;19.026;2023-03-14T15:26:25;98430.91;;;17.43;39.04
68107;BME280;54892;47.488;19.026;2023-03-14T15:29:29;98419.00;;;17.41;38.66
68107;BME280;54892;47.488;19.026;2023-03-14T15:32:32;98425.16;;;17.29;38.84
68107;BME280;54892;47.488;19.026;2023-03-14T15:35:35;98423.75;;;17.19;39.13
68107;BME280;54892;47.488;19.026;2023-03-14T15:38:39;98426.00;;;17.17;39.10
68107;BME280;54892;47.488;19.026;2023-03-14T15:41:44;98424.34;;;17.12;39.18
68107;BME280;54892;47.488;19.026;2023-03-14T15:44:48;98434.03;;;17.04;39.32
68107;BME280;54892;47.488;19.026;2023-03-14T15:47:51;98447.66;;;17.03;39.37
68107;BME280;54892;47.488;19.026;2023-03-14T15:50:54;98476.75;;;17.08;39.40
68107;BME280;54892;47.488;19.026;2023-03-14T15:53:58;98479.75;;;17.19;43.70
68107;BME280;54892;47.488;19.026;2023-03-14T15:57:04;98508.72;;;16.83;49.13
68107;BME280;54892;47.488;19.026;2023-03-14T16:00:09;98508.06;;;16.62;51.80
68107;BME280;54892;47.488;19.026;2023-03-14T16:03:15;98511.59;;;16.41;54.27
68107;BME280;54892;47.488;19.026;2023-03-14T16:06:19;98505.88;;;16.18;56.68
68107;BME280;54892;47.488;19.026;2023-03-14T16:09:22;98501.72;;;15.95;58.71
68107;BME280;54892;47.488;19.026;2023-03-14T16:12:29;98503.97;;;15.84;59.95
68107;BME280;54892;47.488;19.026;2023-03-14T16:15:32;98497.31;;;15.57;61.38
68107;BME280;54892;47.488;19.026;2023-03-14T16:18:36;98497.63;;;15.34;62.37
68107;BME280;54892;47.488;19.026;2023-03-14T16:21:40;98491.75;;;15.29;63.50
68107;BME280;54892;47.488;19.026;2023-03-14T16:24:44;98491.25;;;15.05;63.73